sensor_id;sensor_type;location;lat;lon;timestamp;temperature;humidity
26186;DHT22;20067;48.764;9.176;2023-05-13T00:01:16;12.70;91.30
26186;DHT22;20067;48.764;9.176;2023-05-13T00:03:42;12.60;91.30
26186;DHT22;20067;48.764;9.176;2023-05-13T00:06:08;12.70;91.30
26186;DHT22;20067;48.764;9.176;2023-05-13T00:08:33;12.80;91.30
26186;DHT22;20067;48.764;9.176;2023-05-13T00:10:59;12.90;91.30
26186;DHT22;20067;48.764;9.176;2023-05-13T00:13:25;12.90;91.30
26186;DHT22;20067;48.764;9.176;2023-05-13T00:15:51;13.00;91.30
26186;DHT22;20067;48.764;9.176;2023-05-13T00:18:17;13.00;91.30
26186;DHT22;20067;48.764;9.176;2023-05-13T00:20:42;12.90;91.30
26186;DHT22;20067;48.764;9.176;2023-05-13T00:23:08;13.20;91.30
26186;DHT22;20067;48.764;9.176;2023-05-13T00:25:34;13.40;91.30
26186;DHT22;20067;48.764;9.176;2023-05-13T00:28:00;13.30;91.30
26186;DHT22;20067;48.764;9.176;2023-05-13T00:30:25;13.40;91.30
26186;DHT22;20067;48.764;9.176;2023-05-13T00:32:51;13.00;91.30
26186;DHT22;20067;48.764;9.176;2023-05-13T00:35:17;13.00;91.30
26186;DHT22;20067;48.764;9.176;2023-05-13T00:37:42;12.90;91.30
26186;DHT22;20067;48.764;9.176;2023-05-13T00:40:22;12.90;91.30
26186;DHT22;20067;48.764;9.176;2023-05-13T00:42:48;12.90;91.30
26186;DHT22;20067;48.764;9.176;2023-05-13T00:45:14;12.90;91.30
26186;DHT22;20067;48.764;9.176;2023-05-13T00:47:41;13.00;91.30
26186;DHT22;20067;48.764;9.176;2023-05-13T00:50:09;13.10;91.30
26186;DHT22;20067;48.764;9.176;2023-05-13T00:52:37;12.80;91.30
26186;DHT22;20067;48.764;9.176;2023-05-13T00:55:03;12.80;91.30
26186;DHT22;20067;48.764;9.176;2023-05-13T00:57:29;12.70;91.30
26186;DHT22;20067;48.764;9.176;2023-05-13T00:59:55;12.70;91.30
26186;DHT22;20067;48.764;9.176;2023-05-13T01:05:15;12.90;91.30
26186;DHT22;20067;48.764;9.176;2023-05-13T01:10:49;12.70;91.30
26186;DHT22;20067;48.764;9.176;2023-05-13T01:13:27;12.80;91.30
26186;DHT22;20067;48.764;9.176;2023-05-13T01:16:22;12.70;91.30
26186;DHT22;20067;48.764;9.176;2023-05-13T01:19:02;12.60;91.30
26186;DHT22;20067;48.764;9.176;2023-05-13T01:21:34;12.60;91.30
26186;DHT22;20067;48.764;9.176;2023-05-13T01:24:00;12.50;91.30
26186;DHT22;20067;48.764;9.176;2023-05-13T01:26:26;12.60;91.30
26186;DHT22;20067;48.764;9.176;2023-05-13T01:28:52;12.50;91.30
26186;DHT22;20067;48.764;9.176;2023-05-13T01:31:19;12.60;91.30
26186;DHT22;20067;48.764;9.176;2023-05-13T01:33:46;12.50;91.30
26186;DHT22;20067;48.764;9.176;2023-05-13T01:36:13;12.30;91.30
26186;DHT22;20067;48.764;9.176;2023-05-13T01:38:39;12.20;91.30
26186;DHT22;20067;48.764;9.176;2023-05-13T01:41:05;12.10;91.30
26186;DHT22;20067;48.764;9.176;2023-05-13T01:43:30;11.90;91.30
26186;DHT22;20067;48.764;9.176;2023-05-13T01:45:56;11.80;91.30
26186;DHT22;20067;48.764;9.176;2023-05-13T01:48:25;11.80;91.30
26186;DHT22;20067;48.764;9.176;2023-05-13T01:50:50;11.80;91.30
26186;DHT22;20067;48.764;9.176;2023-05-13T01:53:17;11.80;91.30
26186;DHT22;20067;48.764;9.176;2023-05-13T01:55:43;11.70;91.30
26186;DHT22;20067;48.764;9.176;2023-05-13T01:58:08;11.60;91.30
26186;DHT22;20067;48.764;9.176;2023-05-13T02:00:34;11.60;91.30
26186;DHT22;20067;48.764;9.176;2023-05-13T02:03:00;11.60;91.30
26186;DHT22;20067;48.764;9.176;2023-05-13T02:05:25;11.40;91.30
26186;DHT22;20067;48.764;9.176;2023-05-13T02:07:51;11.60;91.30
26186;DHT22;20067;48.764;9.176;2023-05-13T02:10:17;11.60;91.30
26186;DHT22;20067;48.764;9.176;2023-05-13T02:12:42;11.50;91.30
26186;DHT22;20067;48.764;9.176;2023-05-13T02:15:09;11.50;91.30
26186;DHT22;20067;48.764;9.176;2023-05-13T02:17:35;11.80;91.30
26186;DHT22;20067;48.764;9.176;2023-05-13T02:20:00;12.30;91.30
26186;DHT22;20067;48.764;9.176;2023-05-13T02:22:26;12.30;91.30
26186;DHT22;20067;48.764;9.176;2023-05-13T02:24:52;12.50;91.30
26186;DHT22;20067;48.764;9.176;2023-05-13T02:27:17;12.40;91.30
26186;DHT22;20067;48.764;9.176;2023-05-13T02:29:43;12.30;91.30
26186;DHT22;20067;48.764;9.176;2023-05-13T02:32:09;12.00;91.30
26186;DHT22;20067;48.764;9.176;2023-05-13T02:34:34;12.00;91.30
26186;DHT22;20067;48.764;9.176;2023-05-13T02:37:01;11.90;91.30
26186;DHT22;20067;48.764;9.176;2023-05-13T02:39:27;11.80;91.30
26186;DHT22;20067;48.764;9.176;2023-05-13T02:41:53;11.80;91.30
26186;DHT22;20067;48.764;9.176;2023-05-13T02:44:18;11.70;91.30
26186;DHT22;20067;48.764;9.176;2023-05-13T02:46:44;11.60;91.30
26186;DHT22;20067;48.764;9.176;2023-05-13T02:49:10;11.50;91.30
26186;DHT22;20067;48.764;9.176;2023-05-13T02:51:35;11.70;91.30
26186;DHT22;20067;48.764;9.176;2023-05-13T02:54:01;11.70;91.30
26186;DHT22;20067;48.764;9.176;2023-05-13T02:56:27;11.70;91.30
26186;DHT22;20067;48.764;9.176;2023-05-13T02:58:52;11.50;91.30
26186;DHT22;20067;48.764;9.176;2023-05-13T03:01:18;11.50;91.30
26186;DHT22;20067;48.764;9.176;2023-05-13T03:03:43;11.30;91.30
26186;DHT22;20067;48.764;9.176;2023-05-13T03:06:09;11.40;91.30
26186;DHT22;20067;48.764;9.176;2023-05-13T03:08:35;11.40;91.30
26186;DHT22;20067;48.764;9.176;2023-05-13T03:11:01;11.40;91.30
26186;DHT22;20067;48.764;9.176;2023-05-13T03:13:27;11.60;91.30
26186;DHT22;20067;48.764;9.176;2023-05-13T03:15:52;11.30;91.30
26186;DHT22;20067;48.764;9.176;2023-05-13T03:18:18;11.20;91.30
26186;DHT22;20067;48.764;9.176;2023-05-13T03:20:43;11.20;91.30
26186;DHT22;20067;48.764;9.176;2023-05-13T03:23:09;11.30;91.30
26186;DHT22;20067;48.764;9.176;2023-05-13T03:25:34;11.10;91.30
26186;DHT22;20067;48.764;9.176;2023-05-13T03:28:02;11.00;91.30
26186;DHT22;20067;48.764;9.176;2023-05-13T03:30:27;11.00;91.30
26186;DHT22;20067;48.764;9.176;2023-05-13T03:32:53;11.10;91.30
26186;DHT22;20067;48.764;9.176;2023-05-13T03:35:19;11.20;91.30
26186;DHT22;20067;48.764;9.176;2023-05-13T03:37:44;11.40;91.30
26186;DHT22;20067;48.764;9.176;2023-05-13T03:40:10;11.50;91.30
26186;DHT22;20067;48.764;9.176;2023-05-13T03:42:36;11.20;91.30
26186;DHT22;20067;48.764;9.176;2023-05-13T03:45:01;11.20;91.30
26186;DHT22;20067;48.764;9.176;2023-05-13T03:47:27;11.20;91.30
26186;DHT22;20067;48.764;9.176;2023-05-13T03:49:53;11.10;91.30
26186;DHT22;20067;48.764;9.176;2023-05-13T03:52:18;11.00;91.30
26186;DHT22;20067;48.764;9.176;2023-05-13T03:54:44;11.10;91.30
26186;DHT22;20067;48.764;9.176;2023-05-13T03:57:09;11.10;91.30
26186;DHT22;20067;48.764;9.176;2023-05-13T03:59:35;11.00;91.30
26186;DHT22;20067;48.764;9.176;2023-05-13T04:02:00;11.00;91.30
26186;DHT22;20067;48.764;9.176;2023-05-13T04:04:26;11.20;91.30
26186;DHT22;20067;48.764;9.176;2023-05-13T04:06:51;11.20;91.30
26186;DHT22;20067;48.764;9.176;2023-05-13T04:09:17;11.30;91.30
26186;DHT22;20067;48.764;9.176;2023-05-13T04:11:43;11.40;91.30
26186;DHT22;20067;48.764;9.176;2023-05-13T04:14:08;11.60;91.30
26186;DHT22;20067;48.764;9.176;2023-05-13T04:16:34;11.50;91.30
26186;DHT22;20067;48.764;9.176;2023-05-13T04:19:00;11.50;91.30
26186;DHT22;20067;48.764;9.176;2023-05-13T04:21:25;11.30;91.30
26186;DHT22;20067;48.764;9.176;2023-05-13T04:23:51;11.40;91.30
26186;DHT22;20067;48.764;9.176;2023-05-13T04:26:16;11.20;91.30
26186;DHT22;20067;48.764;9.176;2023-05-13T04:28:42;11.20;91.30
26186;DHT22;20067;48.764;9.176;2023-05-13T04:31:07;11.30;91.30
26186;DHT22;20067;48.764;9.176;2023-05-13T04:33:33;11.40;91.30
26186;DHT22;20067;48.764;9.176;2023-05-13T04:35:58;11.20;91.30
26186;DHT22;20067;48.764;9.176;2023-05-13T04:38:24;11.00;91.30
26186;DHT22;20067;48.764;9.176;2023-05-13T04:40:51;11.10;91.30
26186;DHT22;20067;48.764;9.176;2023-05-13T04:43:16;11.10;91.30
26186;DHT22;20067;48.764;9.176;2023-05-13T04:45:42;11.20;91.30
26186;DHT22;20067;48.764;9.176;2023-05-13T04:48:08;11.20;91.30
26186;DHT22;20067;48.764;9.176;2023-05-13T04:50:33;11.40;91.30
26186;DHT22;20067;48.764;9.176;2023-05-13T04:52:59;11.30;91.30
26186;DHT22;20067;48.764;9.176;2023-05-13T04:55:24;11.80;91.30
26186;DHT22;20067;48.764;9.176;2023-05-13T04:57:50;11.60;91.30
26186;DHT22;20067;48.764;9.176;2023-05-13T05:00:16;11.60;91.30
26186;DHT22;20067;48.764;9.176;2023-05-13T05:02:41;11.30;91.30
26186;DHT22;20067;48.764;9.176;2023-05-13T05:05:07;11.20;91.30
26186;DHT22;20067;48.764;9.176;2023-05-13T05:07:33;11.40;91.30
26186;DHT22;20067;48.764;9.176;2023-05-13T05:09:59;11.40;91.30
26186;DHT22;20067;48.764;9.176;2023-05-13T05:12:25;11.50;91.30
26186;DHT22;20067;48.764;9.176;2023-05-13T05:14:50;11.40;91.30
26186;DHT22;20067;48.764;9.176;2023-05-13T05:17:16;11.40;91.30
26186;DHT22;20067;48.764;9.176;2023-05-13T05:19:42;11.60;91.30
26186;DHT22;20067;48.764;9.176;2023-05-13T05:22:07;11.50;91.30
26186;DHT22;20067;48.764;9.176;2023-05-13T05:24:33;11.50;91.30
26186;DHT22;20067;48.764;9.176;2023-05-13T05:26:58;11.40;91.30
26186;DHT22;20067;48.764;9.176;2023-05-13T05:29:24;11.40;91.30
26186;DHT22;20067;48.764;9.176;2023-05-13T05:31:50;11.60;91.30
26186;DHT22;20067;48.764;9.176;2023-05-13T05:34:15;11.50;91.30
26186;DHT22;20067;48.764;9.176;2023-05-13T05:36:41;11.50;91.30
26186;DHT22;20067;48.764;9.176;2023-05-13T05:39:06;11.40;91.30
26186;DHT22;20067;48.764;9.176;2023-05-13T05:41:32;11.40;91.30
26186;DHT22;20067;48.764;9.176;2023-05-13T05:43:58;11.70;91.30
26186;DHT22;20067;48.764;9.176;2023-05-13T05:46:23;11.90;91.30
26186;DHT22;20067;48.764;9.176;2023-05-13T05:48:49;11.80;91.30
26186;DHT22;20067;48.764;9.176;2023-05-13T05:51:15;11.50;91.30
26186;DHT22;20067;48.764;9.176;2023-05-13T05:53:41;11.50;91.30
26186;DHT22;20067;48.764;9.176;2023-05-13T05:56:08;11.50;91.30
26186;DHT22;20067;48.764;9.176;2023-05-13T05:58:33;11.50;91.30
26186;DHT22;20067;48.764;9.176;2023-05-13T06:00:59;11.50;91.30
26186;DHT22;20067;48.764;9.176;2023-05-13T06:03:26;11.50;91.30
26186;DHT22;20067;48.764;9.176;2023-05-13T06:05:52;11.50;91.30
26186;DHT22;20067;48.764;9.176;2023-05-13T06:08:18;11.60;91.30
26186;DHT22;20067;48.764;9.176;2023-05-13T06:10:45;11.80;91.30
26186;DHT22;20067;48.764;9.176;2023-05-13T06:13:12;11.70;91.30
26186;DHT22;20067;48.764;9.176;2023-05-13T06:15:37;11.60;91.30
26186;DHT22;20067;48.764;9.176;2023-05-13T06:18:03;11.70;91.30
26186;DHT22;20067;48.764;9.176;2023-05-13T06:20:30;11.70;91.30
26186;DHT22;20067;48.764;9.176;2023-05-13T06:22:56;11.60;91.30
26186;DHT22;20067;48.764;9.176;2023-05-13T06:25:21;11.70;91.30
26186;DHT22;20067;48.764;9.176;2023-05-13T06:27:47;11.80;91.30
26186;DHT22;20067;48.764;9.176;2023-05-13T06:30:13;12.00;91.30
26186;DHT22;20067;48.764;9.176;2023-05-13T06:32:38;12.20;91.30
26186;DHT22;20067;48.764;9.176;2023-05-13T06:35:05;12.00;91.30
26186;DHT22;20067;48.764;9.176;2023-05-13T06:37:30;11.70;91.30
26186;DHT22;20067;48.764;9.176;2023-05-13T06:39:56;11.50;91.30
26186;DHT22;20067;48.764;9.176;2023-05-13T06:42:22;11.90;91.30
26186;DHT22;20067;48.764;9.176;2023-05-13T06:44:48;11.90;91.30
26186;DHT22;20067;48.764;9.176;2023-05-13T06:47:13;12.10;91.30
26186;DHT22;20067;48.764;9.176;2023-05-13T06:49:41;12.10;91.30
26186;DHT22;20067;48.764;9.176;2023-05-13T06:52:08;12.20;91.30
26186;DHT22;20067;48.764;9.176;2023-05-13T06:54:33;12.10;91.30
26186;DHT22;20067;48.764;9.176;2023-05-13T06:56:59;12.10;91.30
26186;DHT22;20067;48.764;9.176;2023-05-13T06:59:25;12.30;91.30
26186;DHT22;20067;48.764;9.176;2023-05-13T07:01:50;12.30;91.30
26186;DHT22;20067;48.764;9.176;2023-05-13T07:04:16;12.40;91.30
26186;DHT22;20067;48.764;9.176;2023-05-13T07:06:41;12.40;91.30
26186;DHT22;20067;48.764;9.176;2023-05-13T07:09:07;12.40;91.30
26186;DHT22;20067;48.764;9.176;2023-05-13T07:11:34;12.60;91.30
26186;DHT22;20067;48.764;9.176;2023-05-13T07:14:00;12.80;91.30
26186;DHT22;20067;48.764;9.176;2023-05-13T07:16:26;13.10;91.30
26186;DHT22;20067;48.764;9.176;2023-05-13T07:18:51;13.00;91.30
26186;DHT22;20067;48.764;9.176;2023-05-13T07:21:18;13.10;91.30
26186;DHT22;20067;48.764;9.176;2023-05-13T07:23:44;13.20;91.30
26186;DHT22;20067;48.764;9.176;2023-05-13T07:26:09;13.30;91.30
26186;DHT22;20067;48.764;9.176;2023-05-13T07:28:35;13.40;91.00
26186;DHT22;20067;48.764;9.176;2023-05-13T07:31:03;13.30;91.30
26186;DHT22;20067;48.764;9.176;2023-05-13T07:33:28;13.50;91.30
26186;DHT22;20067;48.764;9.176;2023-05-13T07:35:54;13.80;91.10
26186;DHT22;20067;48.764;9.176;2023-05-13T07:38:21;13.60;90.70
26186;DHT22;20067;48.764;9.176;2023-05-13T07:40:47;13.20;91.30
26186;DHT22;20067;48.764;9.176;2023-05-13T07:43:13;13.30;91.30
26186;DHT22;20067;48.764;9.176;2023-05-13T07:45:38;13.70;91.10
26186;DHT22;20067;48.764;9.176;2023-05-13T07:48:04;13.60;90.00
26186;DHT22;20067;48.764;9.176;2023-05-13T07:50:30;13.70;90.00
26186;DHT22;20067;48.764;9.176;2023-05-13T07:52:56;13.90;89.50
26186;DHT22;20067;48.764;9.176;2023-05-13T07:55:22;13.90;89.80
26186;DHT22;20067;48.764;9.176;2023-05-13T07:57:47;13.60;90.20
26186;DHT22;20067;48.764;9.176;2023-05-13T08:00:13;13.60;91.20
26186;DHT22;20067;48.764;9.176;2023-05-13T08:02:41;14.00;90.20
26186;DHT22;20067;48.764;9.176;2023-05-13T08:05:08;14.20;89.20
26186;DHT22;20067;48.764;9.176;2023-05-13T08:07:34;14.10;88.60
26186;DHT22;20067;48.764;9.176;2023-05-13T08:09:59;13.80;89.40
26186;DHT22;20067;48.764;9.176;2023-05-13T08:12:25;13.60;90.80
26186;DHT22;20067;48.764;9.176;2023-05-13T08:14:51;13.80;90.40
26186;DHT22;20067;48.764;9.176;2023-05-13T08:17:16;14.00;90.10
26186;DHT22;20067;48.764;9.176;2023-05-13T08:19:45;14.10;88.90
26186;DHT22;20067;48.764;9.176;2023-05-13T08:22:11;14.10;89.50
26186;DHT22;20067;48.764;9.176;2023-05-13T08:24:36;14.40;88.80
26186;DHT22;20067;48.764;9.176;2023-05-13T08:27:04;14.60;87.80
26186;DHT22;20067;48.764;9.176;2023-05-13T08:29:30;14.40;88.10
26186;DHT22;20067;48.764;9.176;2023-05-13T08:31:55;14.40;88.60
26186;DHT22;20067;48.764;9.176;2023-05-13T08:34:21;14.30;88.20
26186;DHT22;20067;48.764;9.176;2023-05-13T08:36:47;14.20;88.30
26186;DHT22;20067;48.764;9.176;2023-05-13T08:39:12;14.20;89.00
26186;DHT22;20067;48.764;9.176;2023-05-13T08:41:38;14.50;87.80
26186;DHT22;20067;48.764;9.176;2023-05-13T08:44:06;14.20;88.80
26186;DHT22;20067;48.764;9.176;2023-05-13T08:46:36;14.30;88.10
26186;DHT22;20067;48.764;9.176;2023-05-13T08:49:03;13.90;89.50
26186;DHT22;20067;48.764;9.176;2023-05-13T08:51:29;13.80;89.90
26186;DHT22;20067;48.764;9.176;2023-05-13T08:53:55;13.60;90.50
26186;DHT22;20067;48.764;9.176;2023-05-13T08:56:21;13.70;90.60
26186;DHT22;20067;48.764;9.176;2023-05-13T08:58:49;13.80;90.40
26186;DHT22;20067;48.764;9.176;2023-05-13T09:01:16;13.70;90.60
26186;DHT22;20067;48.764;9.176;2023-05-13T09:03:52;13.60;90.80
26186;DHT22;20067;48.764;9.176;2023-05-13T09:06:19;13.40;91.30
26186;DHT22;20067;48.764;9.176;2023-05-13T09:08:45;13.40;91.30
26186;DHT22;20067;48.764;9.176;2023-05-13T09:11:11;13.40;91.30
26186;DHT22;20067;48.764;9.176;2023-05-13T09:13:36;13.30;91.30
26186;DHT22;20067;48.764;9.176;2023-05-13T09:16:02;13.20;91.30
26186;DHT22;20067;48.764;9.176;2023-05-13T09:18:29;13.20;91.30
26186;DHT22;20067;48.764;9.176;2023-05-13T09:20:56;13.20;91.30
26186;DHT22;20067;48.764;9.176;2023-05-13T09:23:22;13.50;91.30
26186;DHT22;20067;48.764;9.176;2023-05-13T09:25:48;13.90;90.60
26186;DHT22;20067;48.764;9.176;2023-05-13T09:28:14;13.70;90.40
26186;DHT22;20067;48.764;9.176;2023-05-13T09:30:40;13.70;90.60
26186;DHT22;20067;48.764;9.176;2023-05-13T09:33:17;13.90;89.90
26186;DHT22;20067;48.764;9.176;2023-05-13T09:35:50;13.80;90.10
26186;DHT22;20067;48.764;9.176;2023-05-13T09:38:23;13.90;90.10
26186;DHT22;20067;48.764;9.176;2023-05-13T09:40:57;13.90;89.40
26186;DHT22;20067;48.764;9.176;2023-05-13T09:43:27;14.10;89.10
26186;DHT22;20067;48.764;9.176;2023-05-13T09:45:54;13.90;89.90
26186;DHT22;20067;48.764;9.176;2023-05-13T09:48:28;13.70;89.90
26186;DHT22;20067;48.764;9.176;2023-05-13T09:50:54;13.90;90.70
26186;DHT22;20067;48.764;9.176;2023-05-13T09:53:25;14.10;90.40
26186;DHT22;20067;48.764;9.176;2023-05-13T09:55:53;14.20;89.90
26186;DHT22;20067;48.764;9.176;2023-05-13T09:58:20;14.50;89.10
26186;DHT22;20067;48.764;9.176;2023-05-13T10:00:46;14.60;88.30
26186;DHT22;20067;48.764;9.176;2023-05-13T10:03:13;14.80;87.80
26186;DHT22;20067;48.764;9.176;2023-05-13T10:05:40;15.00;87.00
26186;DHT22;20067;48.764;9.176;2023-05-13T10:08:08;15.40;86.20
26186;DHT22;20067;48.764;9.176;2023-05-13T10:10:35;15.00;86.50
26186;DHT22;20067;48.764;9.176;2023-05-13T10:13:13;15.20;86.30
26186;DHT22;20067;48.764;9.176;2023-05-13T10:18:13;15.50;86.00
26186;DHT22;20067;48.764;9.176;2023-05-13T10:20:40;14.70;87.40
26186;DHT22;20067;48.764;9.176;2023-05-13T10:23:07;14.60;88.50
26186;DHT22;20067;48.764;9.176;2023-05-13T10:25:33;15.10;87.40
26186;DHT22;20067;48.764;9.176;2023-05-13T10:28:02;15.70;85.70
26186;DHT22;20067;48.764;9.176;2023-05-13T10:30:28;15.50;85.10
26186;DHT22;20067;48.764;9.176;2023-05-13T10:32:57;15.50;85.80
26186;DHT22;20067;48.764;9.176;2023-05-13T10:35:24;15.30;85.70
26186;DHT22;20067;48.764;9.176;2023-05-13T10:37:58;15.20;86.10
26186;DHT22;20067;48.764;9.176;2023-05-13T10:43:22;15.00;85.80
26186;DHT22;20067;48.764;9.176;2023-05-13T10:45:55;15.10;86.70
26186;DHT22;20067;48.764;9.176;2023-05-13T10:48:21;15.20;86.40
26186;DHT22;20067;48.764;9.176;2023-05-13T10:50:57;15.40;86.00
26186;DHT22;20067;48.764;9.176;2023-05-13T10:53:29;15.50;85.90
26186;DHT22;20067;48.764;9.176;2023-05-13T10:55:59;15.30;86.80
26186;DHT22;20067;48.764;9.176;2023-05-13T10:58:29;15.00;87.70
26186;DHT22;20067;48.764;9.176;2023-05-13T11:03:38;14.50;89.40
26186;DHT22;20067;48.764;9.176;2023-05-13T11:06:16;14.30;89.50
26186;DHT22;20067;48.764;9.176;2023-05-13T11:08:53;14.30;90.60
26186;DHT22;20067;48.764;9.176;2023-05-13T11:11:24;14.50;89.80
26186;DHT22;20067;48.764;9.176;2023-05-13T11:13:52;14.50;89.70
26186;DHT22;20067;48.764;9.176;2023-05-13T11:16:19;14.60;89.40
26186;DHT22;20067;48.764;9.176;2023-05-13T11:18:46;14.90;88.80
26186;DHT22;20067;48.764;9.176;2023-05-13T11:21:13;15.20;88.20
26186;DHT22;20067;48.764;9.176;2023-05-13T11:23:56;15.30;87.50
26186;DHT22;20067;48.764;9.176;2023-05-13T11:26:22;15.20;88.00
26186;DHT22;20067;48.764;9.176;2023-05-13T11:28:59;15.20;87.60
26186;DHT22;20067;48.764;9.176;2023-05-13T11:31:44;15.00;88.60
26186;DHT22;20067;48.764;9.176;2023-05-13T11:34:18;15.10;88.20
26186;DHT22;20067;48.764;9.176;2023-05-13T11:36:46;15.30;87.80
26186;DHT22;20067;48.764;9.176;2023-05-13T11:39:22;15.30;87.60
26186;DHT22;20067;48.764;9.176;2023-05-13T11:41:51;15.30;87.70
26186;DHT22;20067;48.764;9.176;2023-05-13T11:44:19;15.30;87.60
26186;DHT22;20067;48.764;9.176;2023-05-13T11:46:56;15.40;87.10
26186;DHT22;20067;48.764;9.176;2023-05-13T11:52:06;14.90;88.20
26186;DHT22;20067;48.764;9.176;2023-05-13T11:55:00;14.90;88.60
26186;DHT22;20067;48.764;9.176;2023-05-13T11:57:26;14.90;88.60
26186;DHT22;20067;48.764;9.176;2023-05-13T12:00:05;15.00;88.60
26186;DHT22;20067;48.764;9.176;2023-05-13T12:02:37;15.10;89.00
26186;DHT22;20067;48.764;9.176;2023-05-13T12:05:09;15.00;88.50
26186;DHT22;20067;48.764;9.176;2023-05-13T12:07:36;15.00;89.10
26186;DHT22;20067;48.764;9.176;2023-05-13T12:10:04;15.20;88.80
26186;DHT22;20067;48.764;9.176;2023-05-13T12:12:33;15.20;87.60
26186;DHT22;20067;48.764;9.176;2023-05-13T12:15:01;15.30;87.70
26186;DHT22;20067;48.764;9.176;2023-05-13T12:17:29;15.20;87.60
26186;DHT22;20067;48.764;9.176;2023-05-13T12:22:29;15.50;87.20
26186;DHT22;20067;48.764;9.176;2023-05-13T12:24:55;15.70;86.30
26186;DHT22;20067;48.764;9.176;2023-05-13T12:27:25;15.50;85.90
26186;DHT22;20067;48.764;9.176;2023-05-13T12:29:54;15.20;86.70
26186;DHT22;20067;48.764;9.176;2023-05-13T12:32:20;15.00;87.60
26186;DHT22;20067;48.764;9.176;2023-05-13T12:34:49;15.10;87.20
26186;DHT22;20067;48.764;9.176;2023-05-13T12:37:15;15.50;86.40
26186;DHT22;20067;48.764;9.176;2023-05-13T12:39:41;15.90;85.10
26186;DHT22;20067;48.764;9.176;2023-05-13T12:42:17;15.90;84.60
26186;DHT22;20067;48.764;9.176;2023-05-13T12:44:44;16.10;84.20
26186;DHT22;20067;48.764;9.176;2023-05-13T12:47:10;16.20;83.80
26186;DHT22;20067;48.764;9.176;2023-05-13T12:49:56;16.20;84.60
26186;DHT22;20067;48.764;9.176;2023-05-13T12:52:22;16.60;82.90
26186;DHT22;20067;48.764;9.176;2023-05-13T12:54:48;16.80;82.60
26186;DHT22;20067;48.764;9.176;2023-05-13T12:57:15;16.60;83.10
26186;DHT22;20067;48.764;9.176;2023-05-13T12:59:42;17.40;81.90
26186;DHT22;20067;48.764;9.176;2023-05-13T13:02:10;18.80;77.00
26186;DHT22;20067;48.764;9.176;2023-05-13T13:04:36;19.60;74.70
26186;DHT22;20067;48.764;9.176;2023-05-13T13:07:01;19.60;74.80
26186;DHT22;20067;48.764;9.176;2023-05-13T13:09:27;20.60;72.30
26186;DHT22;20067;48.764;9.176;2023-05-13T13:11:53;20.50;71.70
26186;DHT22;20067;48.764;9.176;2023-05-13T13:14:18;20.20;73.50
26186;DHT22;20067;48.764;9.176;2023-05-13T13:16:44;21.70;70.20
26186;DHT22;20067;48.764;9.176;2023-05-13T13:19:09;22.00;68.30
26186;DHT22;20067;48.764;9.176;2023-05-13T13:21:35;22.00;68.00
26186;DHT22;20067;48.764;9.176;2023-05-13T13:24:00;20.20;71.30
26186;DHT22;20067;48.764;9.176;2023-05-13T13:26:26;19.30;73.90
26186;DHT22;20067;48.764;9.176;2023-05-13T13:28:52;18.60;75.90
26186;DHT22;20067;48.764;9.176;2023-05-13T13:31:17;17.60;77.80
26186;DHT22;20067;48.764;9.176;2023-05-13T13:33:43;17.10;80.30
26186;DHT22;20067;48.764;9.176;2023-05-13T13:36:09;16.90;80.60
26186;DHT22;20067;48.764;9.176;2023-05-13T13:38:34;16.70;82.00
26186;DHT22;20067;48.764;9.176;2023-05-13T13:41:00;16.40;82.60
26186;DHT22;20067;48.764;9.176;2023-05-13T13:43:25;16.80;82.40
26186;DHT22;20067;48.764;9.176;2023-05-13T13:45:52;17.00;81.40
26186;DHT22;20067;48.764;9.176;2023-05-13T13:48:17;17.10;81.50
26186;DHT22;20067;48.764;9.176;2023-05-13T13:50:43;17.30;80.40
26186;DHT22;20067;48.764;9.176;2023-05-13T13:53:08;17.50;79.80
26186;DHT22;20067;48.764;9.176;2023-05-13T13:55:35;17.20;79.30
26186;DHT22;20067;48.764;9.176;2023-05-13T13:58:00;17.00;80.70
26186;DHT22;20067;48.764;9.176;2023-05-13T14:00:26;16.60;81.80
26186;DHT22;20067;48.764;9.176;2023-05-13T14:02:52;16.40;82.40
26186;DHT22;20067;48.764;9.176;2023-05-13T14:05:17;16.70;81.70
26186;DHT22;20067;48.764;9.176;2023-05-13T14:07:43;16.30;82.10
26186;DHT22;20067;48.764;9.176;2023-05-13T14:10:10;16.30;83.10
26186;DHT22;20067;48.764;9.176;2023-05-13T14:12:36;16.60;82.60
26186;DHT22;20067;48.764;9.176;2023-05-13T14:15:02;16.70;81.80
26186;DHT22;20067;48.764;9.176;2023-05-13T14:17:28;16.70;81.90
26186;DHT22;20067;48.764;9.176;2023-05-13T14:19:54;16.40;82.60
26186;DHT22;20067;48.764;9.176;2023-05-13T14:22:20;16.20;83.50
26186;DHT22;20067;48.764;9.176;2023-05-13T14:24:46;16.00;84.40
26186;DHT22;20067;48.764;9.176;2023-05-13T14:27:12;16.20;84.10
26186;DHT22;20067;48.764;9.176;2023-05-13T14:29:38;16.20;84.50
26186;DHT22;20067;48.764;9.176;2023-05-13T14:32:04;16.10;84.70
26186;DHT22;20067;48.764;9.176;2023-05-13T14:34:31;16.20;84.20
26186;DHT22;20067;48.764;9.176;2023-05-13T14:36:57;16.30;84.50
26186;DHT22;20067;48.764;9.176;2023-05-13T14:39:22;16.60;83.70
26186;DHT22;20067;48.764;9.176;2023-05-13T14:41:48;16.40;83.90
26186;DHT22;20067;48.764;9.176;2023-05-13T14:44:13;16.50;83.90
26186;DHT22;20067;48.764;9.176;2023-05-13T14:46:39;17.10;82.60
26186;DHT22;20067;48.764;9.176;2023-05-13T14:49:07;17.20;81.50
26186;DHT22;20067;48.764;9.176;2023-05-13T14:51:33;17.20;81.80
26186;DHT22;20067;48.764;9.176;2023-05-13T14:53:59;17.20;81.50
26186;DHT22;20067;48.764;9.176;2023-05-13T14:56:25;17.00;82.00
26186;DHT22;20067;48.764;9.176;2023-05-13T14:58:51;17.20;81.90
26186;DHT22;20067;48.764;9.176;2023-05-13T15:01:17;17.20;82.40
26186;DHT22;20067;48.764;9.176;2023-05-13T15:03:43;17.00;81.60
26186;DHT22;20067;48.764;9.176;2023-05-13T15:06:08;16.50;83.20
26186;DHT22;20067;48.764;9.176;2023-05-13T15:08:35;16.30;84.10
26186;DHT22;20067;48.764;9.176;2023-05-13T15:11:02;16.20;84.10
26186;DHT22;20067;48.764;9.176;2023-05-13T15:13:28;16.20;84.70
26186;DHT22;20067;48.764;9.176;2023-05-13T15:15:57;16.30;84.70
26186;DHT22;20067;48.764;9.176;2023-05-13T15:18:22;16.60;84.10
26186;DHT22;20067;48.764;9.176;2023-05-13T15:20:48;16.80;83.00
26186;DHT22;20067;48.764;9.176;2023-05-13T15:23:13;16.70;83.30
26186;DHT22;20067;48.764;9.176;2023-05-13T15:25:39;16.60;83.40
26186;DHT22;20067;48.764;9.176;2023-05-13T15:28:05;16.50;83.30
26186;DHT22;20067;48.764;9.176;2023-05-13T15:30:30;16.60;83.60
26186;DHT22;20067;48.764;9.176;2023-05-13T15:32:56;16.80;83.20
26186;DHT22;20067;48.764;9.176;2023-05-13T15:35:21;16.90;82.50
26186;DHT22;20067;48.764;9.176;2023-05-13T15:37:47;16.60;83.10
26186;DHT22;20067;48.764;9.176;2023-05-13T15:40:13;16.90;82.90
26186;DHT22;20067;48.764;9.176;2023-05-13T15:42:39;17.00;82.10
26186;DHT22;20067;48.764;9.176;2023-05-13T15:45:05;17.00;82.40
26186;DHT22;20067;48.764;9.176;2023-05-13T15:47:31;17.40;81.20